Time;durP1;ratioP1;P1;durP2;ratioP2;P2;SDS_P1;SDS_P2;PMS_P1;PMS_P2;Temp;Humidity;BMP_temperature;BMP_pressure;BME280_temperature;BME280_humidity;BME280_pressure;Samples;Min_cycle;Max_cycle;Signal;HPM_P1;HPM_P2
2023/09/21 00:01:23;;;;;;;3.30;2.28;;;17.10;99.90;;;-141.84;71.34;20805.75;4988044;28;20251;-62
2023/09/21 00:03:53;;;;;;;3.10;2.75;;;17.10;99.90;;;-141.84;71.10;20850.47;4979443;28;20222;-63
2023/09/21 00:06:21;;;;;;;3.45;2.60;;;17.00;99.90;;;-141.84;71.71;20830.16;4989127;28;20243;-63
2023/09/21 00:08:49;;;;;;;2.83;2.35;;;17.00;99.90;;;-141.84;71.74;20805.75;4988919;28;20329;-62
2023/09/21 00:11:19;;;;;;;4.57;2.25;;;17.00;99.90;;;-141.84;71.71;20820.00;4988723;28;20238;-62
2023/09/21 00:13:47;;;;;;;2.85;2.58;;;17.00;99.90;;;-141.84;72.28;20771.19;4986670;28;20293;-62
2023/09/21 00:16:18;;;;;;;3.08;2.83;;;16.80;99.90;;;-141.84;71.13;20822.03;4985549;28;20223;-63
2023/09/21 00:18:48;;;;;;;2.95;2.60;;;16.90;99.90;;;-141.84;71.16;20836.25;4988647;28;20348;-62
2023/09/21 00:21:17;;;;;;;3.28;2.60;;;16.90;99.90;;;-141.84;70.74;20826.09;4986363;28;20293;-63
2023/09/21 00:23:47;;;;;;;4.15;2.92;;;16.90;99.90;;;-141.84;70.57;20852.50;4985725;28;20277;-63
2023/09/21 00:26:16;;;;;;;4.80;2.70;;;17.00;99.90;;;-141.84;70.43;20820.00;4986131;28;20322;-63
2023/09/21 00:28:44;;;;;;;2.78;2.58;;;16.90;99.90;;;-141.84;70.62;20838.28;4985680;28;20234;-63
2023/09/21 00:31:13;;;;;;;2.70;2.50;;;17.00;99.90;;;-141.84;71.11;20803.72;4985167;28;20270;-63
2023/09/21 00:33:42;;;;;;;3.03;2.70;;;17.00;99.90;;;-141.84;70.88;20824.06;4985112;28;20622;-63
2023/09/21 00:36:16;;;;;;;3.08;2.70;;;17.00;99.90;;;-141.84;70.90;20826.09;4978192;28;20274;-63
2023/09/21 00:38:46;;;;;;;3.25;2.72;;;16.90;99.90;;;-141.84;71.11;20820.00;4985777;28;20230;-61
2023/09/21 00:41:15;;;;;;;2.70;2.50;;;16.90;99.90;;;-141.84;71.46;20783.41;4985872;28;20235;-62
2023/09/21 00:43:44;;;;;;;3.47;2.30;;;16.90;99.90;;;-141.84;72.13;20771.19;4985410;28;20318;-62
2023/09/21 00:46:13;;;;;;;4.32;2.60;;;16.90;99.90;;;-141.84;72.22;20777.28;4980076;28;20242;-62
2023/09/21 00:48:42;;;;;;;2.50;2.30;;;16.80;99.90;;;-141.84;72.62;20732.56;4985155;28;20246;-62
2023/09/21 00:51:16;;;;;;;2.58;2.38;;;16.80;99.90;;;-141.84;72.52;20756.97;4985501;28;20242;-63
2023/09/21 00:53:47;;;;;;;3.25;2.55;;;16.70;99.90;;;-141.84;72.91;20754.94;4985086;28;20330;-63
2023/09/21 00:56:20;;;;;;;3.30;2.50;;;16.70;99.90;;;-141.84;72.57;20759.00;4984661;28;20322;-63
2023/09/21 00:58:53;;;;;;;2.35;2.05;;;16.70;99.90;;;-141.84;72.94;20740.69;4984583;28;20244;-63
2023/09/21 01:01:28;;;;;;;3.38;2.50;;;16.70;99.90;;;-141.84;73.55;20736.63;4984805;28;20282;-63
2023/09/21 01:04:00;;;;;;;2.92;2.55;;;16.70;99.90;;;-141.84;73.97;20710.22;4977012;28;20268;-63
2023/09/21 01:06:31;;;;;;;3.78;2.83;;;16.60;99.90;;;-141.84;73.17;20732.56;4985583;28;20234;-63
2023/09/21 01:09:02;;;;;;;3.03;2.60;;;16.60;99.90;;;-141.84;73.74;20716.31;4985343;28;20259;-63
2023/09/21 01:11:31;;;;;;;2.78;2.58;;;16.60;99.90;;;-141.84;74.01;20720.38;4984827;28;20223;-62
2023/09/21 01:13:59;;;;;;;3.83;2.60;;;16.50;99.90;;;-141.84;74.43;20752.91;4977410;28;20251;-63
2023/09/21 01:16:27;;;;;;;2.83;2.28;;;16.50;99.90;;;-141.84;75.03;20704.13;4984619;28;20766;-63
2023/09/21 01:18:56;;;;;;;2.78;2.58;;;16.40;99.90;;;-141.84;75.01;20695.97;4984328;28;20223;-62
2023/09/21 01:21:35;;;;;;;2.75;2.53;;;16.40;99.90;;;-141.84;74.64;20698.00;4984671;28;20219;-62
2023/09/21 01:24:06;;;;;;;3.03;2.67;;;16.40;99.90;;;-141.84;74.98;20700.03;4977180;28;20234;-62
2023/09/21 01:26:34;;;;;;;3.35;2.75;;;16.40;99.90;;;-141.84;75.21;20683.78;4985062;28;20301;-62
2023/09/21 01:29:03;;;;;;;3.80;2.67;;;16.40;99.90;;;-141.84;75.13;20673.63;4984614;28;20722;-63
2023/09/21 01:31:32;;;;;;;2.75;2.47;;;16.40;99.90;;;-141.84;75.06;20706.16;4984460;28;20597;-62
2023/09/21 01:34:01;;;;;;;3.13;2.78;;;16.40;99.90;;;-141.84;75.13;20683.78;4976594;28;20250;-62
2023/09/21 01:36:29;;;;;;;3.13;2.53;;;16.40;99.90;;;-141.84;75.46;20698.00;4984444;28;20311;-63
2023/09/21 01:38:58;;;;;;;3.25;2.42;;;16.30;99.90;;;-141.84;75.55;20671.59;4984484;28;20294;-63
2023/09/21 01:41:29;;;;;;;3.35;2.70;;;16.30;99.90;;;-141.84;74.35;20704.13;4984676;28;20231;-63
2023/09/21 01:43:57;;;;;;;5.70;2.72;;;16.40;99.90;;;-141.84;74.13;20698.00;4976276;28;20231;-62
2023/09/21 01:46:26;;;;;;;2.55;2.30;;;16.50;99.90;;;-141.84;74.21;20718.34;4984150;28;20309;-62
2023/09/21 01:48:55;;;;;;;3.67;2.22;;;16.50;99.90;;;-141.84;74.82;20683.78;4984001;28;20230;-62
2023/09/21 01:51:23;;;;;;;2.50;2.30;;;16.50;99.90;;;-141.84;75.33;20679.72;4984316;28;20224;-62
2023/09/21 01:53:53;;;;;;;3.17;2.42;;;16.50;99.90;;;-141.84;75.48;20677.69;4976691;28;20718;-62
2023/09/21 01:56:21;;;;;;;2.78;2.58;;;16.40;99.90;;;-141.84;75.34;20669.56;4984245;28;20286;-62
2023/09/21 01:58:51;;;;;;;2.58;2.38;;;16.40;99.90;;;-141.84;75.44;20657.34;4984127;28;20238;-62
2023/09/21 02:01:19;;;;;;;3.22;2.53;;;16.40;99.90;;;-141.84;75.70;20651.25;4983494;28;20233;-63
2023/09/21 02:03:47;;;;;;;3.83;2.80;;;16.30;99.90;;;-141.84;75.18;20661.44;4981258;28;20303;-62
2023/09/21 02:06:15;;;;;;;3.20;2.60;;;16.40;99.90;;;-141.84;75.75;20659.38;4984043;28;20219;-62
2023/09/21 02:08:44;;;;;;;2.75;2.55;;;16.30;99.90;;;-141.84;76.03;20608.56;4983657;28;20333;-62
2023/09/21 02:11:13;;;;;;;2.53;2.33;;;16.30;99.90;;;-141.84;76.19;20606.53;4983616;28;20231;-62
2023/09/21 02:13:41;;;;;;;2.75;2.53;;;16.20;99.90;;;-141.84;75.79;20620.78;4984252;28;20254;-62
2023/09/21 02:16:14;;;;;;;2.72;2.50;;;16.20;99.90;;;-141.84;76.11;20632.97;4976250;28;20259;-63
2023/09/21 02:18:44;;;;;;;3.40;2.70;;;16.20;99.90;;;-141.84;75.70;20639.06;4983473;28;20297;-62
2023/09/21 02:21:17;;;;;;;3.00;2.70;;;16.20;99.90;;;-141.84;76.14;20628.91;4983833;28;20206;-63
2023/09/21 02:23:45;;;;;;;2.65;2.40;;;16.10;99.90;;;-141.84;76.44;20590.28;4982662;28;20245;-62
2023/09/21 02:26:14;;;;;;;4.10;2.78;;;16.00;99.90;;;-141.84;76.77;20588.25;4980711;28;20258;-63
2023/09/21 02:28:43;;;;;;;3.45;2.72;;;16.10;99.90;;;-141.84;77.12;20569.94;4983664;28;20306;-62
2023/09/21 02:31:13;;;;;;;4.18;2.60;;;16.00;99.90;;;-141.84;77.11;20600.44;4983400;28;20235;-63
2023/09/21 02:33:42;;;;;;;2.70;2.50;;;16.00;99.90;;;-141.84;77.00;20580.13;4983151;28;20218;-62
2023/09/21 02:36:19;;;;;;;4.28;2.70;;;16.00;99.90;;;-141.84;76.74;20598.41;4977480;28;20216;-63
2023/09/21 02:38:48;;;;;;;2.78;2.58;;;16.00;99.90;;;-141.84;77.02;20598.41;4983079;28;20991;-63
2023/09/21 02:41:17;;;;;;;3.20;2.90;;;16.00;99.90;;;-141.84;77.24;20582.16;4983346;28;20231;-64
2023/09/21 02:43:46;;;;;;;3.38;2.75;;;15.90;99.90;;;-141.84;77.26;20531.31;4982815;28;20238;-62
2023/09/21 02:46:16;;;;;;;3.10;2.58;;;15.90;99.90;;;-141.84;77.24;20557.75;4982734;28;20236;-62
2023/09/21 02:48:44;;;;;;;2.95;2.42;;;15.90;99.90;;;-141.84;77.69;20561.81;4983056;28;20211;-63
2023/09/21 02:51:13;;;;;;;3.85;2.90;;;15.90;99.90;;;-141.84;77.54;20561.81;4983514;28;20279;-62
2023/09/21 02:53:42;;;;;;;5.20;2.35;;;15.90;99.90;;;-141.84;77.08;20547.59;4983179;28;20226;-62
2023/09/21 02:56:10;;;;;;;2.67;2.47;;;15.80;99.90;;;-141.84;76.79;20525.22;4977166;28;20285;-63
2023/09/21 02:58:40;;;;;;;2.95;2.65;;;15.80;99.90;;;-141.84;76.91;20539.47;4983515;28;20239;-62
2023/09/21 03:01:10;;;;;;;2.83;2.63;;;15.80;99.90;;;-141.84;77.09;20539.47;4983086;28;20330;-62
2023/09/21 03:03:40;;;;;;;4.43;3.08;;;15.80;99.90;;;-141.84;76.60;20551.66;4982914;28;20208;-63
2023/09/21 03:06:08;;;;;;;3.28;2.97;;;15.80;99.90;;;-141.84;76.70;20525.22;4975720;28;21238;-62
2023/09/21 03:08:38;;;;;;;3.97;2.78;;;15.80;99.90;;;-141.84;76.92;20502.88;4983090;28;20239;-62
2023/09/21 03:11:09;;;;;;;3.05;2.75;;;15.80;99.90;;;-141.84;76.78;20517.09;4983128;28;20235;-63
2023/09/21 03:13:38;;;;;;;2.95;2.45;;;15.80;99.90;;;-141.84;77.07;20529.28;4983292;28;20419;-63
2023/09/21 03:16:12;;;;;;;2.20;2.00;;;15.80;99.90;;;-141.84;76.52;20574.00;4976363;28;20780;-62
2023/09/21 03:18:46;;;;;;;3.50;2.42;;;15.80;99.90;;;-141.84;76.37;20594.34;4983865;28;20210;-63
2023/09/21 03:21:15;;;;;;;2.97;2.67;;;15.80;99.90;;;-141.84;76.49;20533.34;4983416;28;20261;-62
2023/09/21 03:23:46;;;;;;;2.67;2.47;;;15.70;99.90;;;-141.84;76.66;20545.56;4972017;28;20920;-64
2023/09/21 03:26:15;;;;;;;3.85;2.40;;;15.80;99.90;;;-141.84;76.49;20547.59;4982656;28;20785;-63
2023/09/21 03:28:44;;;;;;;3.97;2.53;;;15.80;99.90;;;-141.84;76.65;20586.22;4983366;28;20730;-62
2023/09/21 03:31:16;;;;;;;3.00;2.50;;;15.80;99.90;;;-141.84;77.03;20521.16;4982600;28;20711;-61
2023/09/21 03:33:47;;;;;;;3.67;2.60;;;15.80;99.90;;;-141.84;76.92;20537.44;4982247;28;20283;-61
2023/09/21 03:36:16;;;;;;;3.03;2.60;;;15.90;99.90;;;-141.84;76.91;20547.59;4982912;28;20220;-62
2023/09/21 03:38:47;;;;;;;3.00;2.70;;;15.80;99.90;;;-141.84;76.93;20525.22;4982886;28;20235;-61
2023/09/21 03:41:15;;;;;;;2.50;2.30;;;15.80;99.90;;;-141.84;76.57;20551.66;4982672;28;20234;-62
2023/09/21 03:43:44;;;;;;;4.22;2.65;;;15.80;99.90;;;-141.84;76.66;20576.03;4983623;28;20241;-62
2023/09/21 03:46:12;;;;;;;2.83;2.38;;;15.80;99.90;;;-141.84;77.02;20508.97;4977675;28;20263;-63
2023/09/21 03:48:40;;;;;;;3.78;2.63;;;15.80;99.90;;;-141.84;77.29;20521.16;4982676;28;20725;-63
2023/09/21 03:51:12;;;;;;;2.92;2.60;;;15.70;99.90;;;-141.84;76.77;20537.44;4983720;28;20251;-63
2023/09/21 03:53:40;;;;;;;2.47;2.28;;;15.80;99.90;;;-141.84;77.41;20484.56;4983102;28;20239;-63
2023/09/21 03:56:09;;;;;;;2.70;2.50;;;15.70;99.90;;;-141.84;76.91;20496.78;4975873;28;20235;-61
2023/09/21 03:58:37;;;;;;;3.70;2.78;;;15.70;99.90;;;-141.84;76.79;20490.66;4987072;28;20239;-61
2023/09/21 04:01:08;;;;;;;4.10;2.58;;;15.80;99.90;;;-141.84;76.68;20525.22;4986743;28;20337;-63
2023/09/21 04:03:37;;;;;;;3.28;2.65;;;15.80;99.90;;;-141.84;77.14;20517.09;4987288;28;20207;-63
2023/09/21 04:06:06;;;;;;;2.90;2.70;;;15.70;99.90;;;-141.84;76.87;20535.41;4979143;28;20212;-63
2023/09/21 04:08:36;;;;;;;3.28;2.50;;;15.80;99.90;;;-141.84;77.25;20484.56;4987058;28;20242;-63
2023/09/21 04:11:06;;;;;;;2.60;2.40;;;15.70;99.90;;;-141.84;78.09;20545.56;4986973;28;20289;-62
2023/09/21 04:13:35;;;;;;;3.10;2.80;;;15.60;99.90;;;-141.84;77.78;20492.72;4987357;28;20298;-62
2023/09/21 04:16:07;;;;;;;4.97;2.70;;;15.70;99.90;;;-141.84;77.61;20511.00;4979674;28;20258;-63
2023/09/21 04:18:35;;;;;;;4.68;2.38;;;15.60;99.90;;;-141.84;78.18;20513.03;4986357;28;20286;-63
2023/09/21 04:21:09;;;;;;;3.03;2.60;;;15.60;99.90;;;-141.84;78.82;20460.19;4986589;28;20751;-63
2023/09/21 04:23:48;;;;;;;2.78;2.45;;;15.60;99.90;;;-141.84;79.24;20441.88;4978564;28;20798;-62
2023/09/21 04:26:17;;;;;;;2.92;2.60;;;15.50;99.90;;;-141.84;79.30;20450.03;4985827;28;20278;-63
2023/09/21 04:28:49;;;;;;;2.58;2.38;;;15.40;99.90;;;-141.84;78.71;20441.88;4986275;28;20318;-63
2023/09/21 04:31:18;;;;;;;3.20;2.95;;;15.50;99.90;;;-141.84;78.69;20462.22;4987082;28;20270;-63
2023/09/21 04:33:46;;;;;;;3.05;2.72;;;15.50;99.90;;;-141.84;78.85;20437.81;4985358;28;20262;-64
2023/09/21 04:36:14;;;;;;;2.80;2.25;;;15.50;99.90;;;-141.84;78.86;20460.19;4982990;28;20207;-63
2023/09/21 04:38:44;;;;;;;5.13;2.40;;;15.50;99.90;;;-141.84;78.69;20458.16;4985683;28;20235;-61
2023/09/21 04:41:15;;;;;;;2.88;2.50;;;15.50;99.90;;;-141.84;78.65;20521.16;4985736;28;20233;-62
2023/09/21 04:43:44;;;;;;;2.95;2.65;;;15.60;99.90;;;-141.84;78.56;20460.19;4985841;28;20278;-64
2023/09/21 04:46:14;;;;;;;2.92;2.58;;;15.60;99.90;;;-141.84;78.42;20447.97;4982639;28;20294;-63
2023/09/21 04:48:42;;;;;;;4.03;2.67;;;15.60;99.90;;;-141.84;78.59;20450.03;4984079;28;20324;-63
2023/09/21 04:51:14;;;;;;;3.40;2.70;;;15.60;99.90;;;-141.84;78.59;20474.41;4985930;28;20226;-62
2023/09/21 04:53:42;;;;;;;2.60;2.40;;;15.60;99.90;;;-141.84;78.77;20482.53;4985532;28;20239;-63
2023/09/21 04:56:11;;;;;;;2.58;2.38;;;15.60;99.90;;;-141.84;78.95;20427.66;4978100;28;20235;-61
2023/09/21 04:58:41;;;;;;;3.00;2.78;;;15.60;99.90;;;-141.84;79.15;20456.13;4985803;28;20246;-63
2023/09/21 05:01:10;;;;;;;2.90;2.70;;;15.50;99.90;;;-141.84;79.16;20452.06;4984971;28;20262;-62
2023/09/21 05:03:39;;;;;;;4.15;3.13;;;15.50;99.90;;;-141.84;78.82;20454.09;4985408;28;20207;-63
2023/09/21 05:06:07;;;;;;;4.53;2.72;;;15.50;99.90;;;-141.84;78.46;20452.06;4979530;28;20204;-62
2023/09/21 05:08:36;;;;;;;3.53;2.50;;;15.60;99.90;;;-141.84;78.52;20468.31;4985989;28;20239;-64
2023/09/21 05:11:04;;;;;;;3.75;3.30;;;15.60;99.90;;;-141.84;78.68;20500.84;4985486;28;20764;-63
2023/09/21 05:13:33;;;;;;;3.33;3.00;;;15.60;99.90;;;-141.84;78.91;20468.31;4985177;28;20238;-63
2023/09/21 05:16:04;;;;;;;5.85;3.00;;;15.70;99.90;;;-141.84;78.71;20456.13;4976822;28;20231;-64
2023/09/21 05:18:32;;;;;;;3.05;2.50;;;15.70;99.90;;;-141.84;78.81;20468.31;4984998;28;20277;-63
2023/09/21 05:21:04;;;;;;;4.25;2.90;;;15.70;99.90;;;-141.84;78.97;20460.19;4985161;28;20214;-63
2023/09/21 05:23:33;;;;;;;4.65;2.88;;;15.70;99.90;;;-141.84;78.61;20498.81;4984429;28;20266;-62
2023/09/21 05:26:03;;;;;;;3.03;2.60;;;15.70;99.90;;;-141.84;78.68;20476.44;4976592;28;20282;-63
2023/09/21 05:28:31;;;;;;;2.97;2.78;;;15.70;99.90;;;-141.84;78.98;20464.25;4984613;28;20278;-63
2023/09/21 05:31:00;;;;;;;5.10;3.08;;;15.80;99.90;;;-141.84;79.00;20490.66;4984614;28;20219;-63
2023/09/21 05:33:30;;;;;;;6.45;3.45;;;15.80;99.90;;;-141.84;78.96;20468.31;4985637;28;20564;-63
2023/09/21 05:36:04;;;;;;;3.25;2.90;;;15.80;99.90;;;-141.84;78.66;20496.78;4978467;28;20727;-63
2023/09/21 05:38:33;;;;;;;3.40;2.88;;;15.90;99.90;;;-141.84;77.90;20513.03;4984707;28;20239;-62
2023/09/21 05:41:03;;;;;;;8.15;3.50;;;15.90;99.90;;;-141.84;78.04;20506.94;4983905;28;20786;-62
2023/09/21 05:43:32;;;;;;;4.28;3.22;;;16.00;99.90;;;-141.84;78.34;20557.75;4984114;28;20309;-63
2023/09/21 05:46:00;;;;;;;3.30;3.00;;;16.10;99.90;;;-141.84;78.25;20533.34;4977639;28;20308;-60
2023/09/21 05:48:30;;;;;;;3.45;2.90;;;16.20;99.90;;;-141.84;78.01;20557.75;4984782;28;20235;-62
2023/09/21 05:50:59;;;;;;;5.40;3.22;;;16.20;99.90;;;-141.84;77.77;20547.59;4984554;28;20233;-62
2023/09/21 05:53:27;;;;;;;3.70;3.10;;;16.30;99.90;;;-141.84;77.54;20547.59;4984718;28;20239;-61
2023/09/21 05:55:56;;;;;;;4.82;3.08;;;16.30;99.90;;;-141.84;77.37;20569.94;4977525;28;20235;-62
2023/09/21 05:58:24;;;;;;;3.92;3.15;;;16.40;99.90;;;-141.84;76.95;20630.94;4984007;28;20242;-62
2023/09/21 06:00:53;;;;;;;4.63;2.97;;;16.50;99.90;;;-141.84;76.81;20620.78;4985856;28;20231;-61
2023/09/21 06:03:23;;;;;;;4.90;3.00;;;16.50;99.90;;;-141.84;76.60;20643.13;4985877;28;20204;-60
2023/09/21 06:05:52;;;;;;;5.80;3.28;;;16.60;99.90;;;-141.84;76.44;20649.22;4976623;28;20242;-61
2023/09/21 06:08:21;;;;;;;3.75;3.05;;;16.70;99.90;;;-141.84;76.08;20635.00;4983521;28;20235;-61
2023/09/21 06:10:49;;;;;;;4.30;3.30;;;16.70;99.90;;;-141.84;75.72;20653.28;4983856;28;20321;-61
2023/09/21 06:13:18;;;;;;;5.90;3.20;;;16.80;99.90;;;-141.84;75.54;20712.25;4983063;28;20259;-61
2023/09/21 06:15:47;;;;;;;4.50;3.08;;;16.90;99.90;;;-141.84;75.10;20700.03;4982438;28;20211;-62
2023/09/21 06:18:17;;;;;;;3.40;2.70;;;17.00;99.90;;;-141.84;74.95;20720.38;4982468;28;20212;-61
2023/09/21 06:20:45;;;;;;;3.40;3.10;;;17.10;99.90;;;-141.84;74.82;20720.38;4983341;28;20447;-61
2023/09/21 06:23:15;;;;;;;3.03;2.70;;;17.20;99.90;;;-141.84;75.09;20734.59;4983190;28;20706;-61
2023/09/21 06:25:43;;;;;;;4.85;3.03;;;17.20;99.90;;;-141.84;74.55;20740.69;4983568;28;20388;-61
2023/09/21 06:28:11;;;;;;;4.30;3.25;;;17.30;99.90;;;-141.84;74.12;20750.88;4977182;28;20266;-61
2023/09/21 06:30:40;;;;;;;4.90;3.50;;;17.40;99.90;;;-141.84;73.79;20789.50;4983448;28;20222;-61
2023/09/21 06:33:09;;;;;;;5.82;3.70;;;17.50;99.90;;;-141.84;73.40;20830.16;4983457;28;20691;-61
2023/09/21 06:35:37;;;;;;;3.78;3.20;;;17.70;99.90;;;-141.84;73.05;20801.69;4976716;28;20715;-61
2023/09/21 06:38:05;;;;;;;4.97;3.10;;;17.70;99.90;;;-141.84;72.81;20852.50;4956898;28;20267;-61
2023/09/21 06:40:36;;;;;;;4.68;3.22;;;17.80;99.90;;;-141.84;72.73;20840.31;4963763;28;20323;-62
2023/09/21 06:43:07;;;;;;;5.45;3.20;;;17.90;99.90;;;-141.84;72.50;20858.59;4963248;28;20380;-62
2023/09/21 06:45:35;;;;;;;4.85;2.75;;;17.90;99.90;;;-141.84;72.08;20891.13;4963349;28;20204;-61
2023/09/21 06:48:05;;;;;;;3.65;2.65;;;18.00;99.90;;;-141.84;71.78;20919.59;4958180;28;20212;-61
2023/09/21 06:50:33;;;;;;;4.40;3.00;;;18.20;99.90;;;-141.84;71.41;20958.22;4983566;28;20239;-61
2023/09/21 06:53:01;;;;;;;3.00;2.70;;;18.30;99.90;;;-141.84;71.16;20950.09;4982981;28;20660;-62
2023/09/21 06:55:30;;;;;;;2.80;2.60;;;18.30;99.90;;;-141.84;71.01;20996.84;4982065;28;20300;-62
2023/09/21 06:57:59;;;;;;;5.65;3.55;;;18.40;99.90;;;-141.84;70.46;21004.97;4973952;28;20251;-61
2023/09/21 07:00:27;;;;;;;3.78;3.25;;;18.50;99.90;;;-141.84;71.08;20911.47;4983646;28;20566;-64
2023/09/21 07:02:56;;;;;;;3.30;2.97;;;18.50;99.90;;;-141.84;71.29;20946.03;4981941;28;20238;-62
2023/09/21 07:05:24;;;;;;;4.50;3.35;;;18.40;99.90;;;-141.84;71.55;20978.56;4981138;28;20722;-63
2023/09/21 07:07:54;;;;;;;4.10;3.13;;;18.30;99.90;;;-141.84;71.93;20935.88;4975712;28;20231;-63
2023/09/21 07:10:22;;;;;;;4.22;3.20;;;18.40;99.90;;;-141.84;71.82;20941.97;4983141;28;20649;-63
2023/09/21 07:12:50;;;;;;;7.97;3.55;;;18.40;99.90;;;-141.84;72.00;20937.91;4982908;28;20317;-62
2023/09/21 07:15:21;;;;;;;5.28;3.47;;;18.30;99.90;;;-141.84;72.36;20911.47;4982874;28;20235;-62
2023/09/21 07:17:50;;;;;;;4.72;3.40;;;18.30;99.90;;;-141.84;72.19;20929.75;4975107;28;20234;-62
2023/09/21 07:20:23;;;;;;;3.45;3.15;;;18.40;99.90;;;-141.84;72.31;20937.91;4968775;28;20730;-63
2023/09/21 07:22:51;;;;;;;6.22;3.15;;;18.40;99.90;;;-141.84;71.73;20988.72;4981486;28;20227;-62
2023/09/21 07:25:19;;;;;;;4.78;3.55;;;18.50;99.90;;;-141.84;71.10;21004.97;4978799;28;20786;-63
2023/09/21 07:27:48;;;;;;;4.07;2.83;;;18.50;99.90;;;-141.84;71.28;21021.25;4979770;28;20234;-62
2023/09/21 07:30:16;;;;;;;3.88;2.78;;;18.40;99.90;;;-141.84;71.20;21078.16;4983760;28;20334;-63
2023/09/21 07:32:46;;;;;;;3.70;3.25;;;18.70;99.90;;;-141.84;70.74;21076.13;4986231;28;20235;-63
2023/09/21 07:35:15;;;;;;;3.40;3.00;;;18.90;99.90;;;-141.84;69.87;21141.19;4986583;28;20231;-63
2023/09/21 07:37:46;;;;;;;3.70;3.38;;;19.10;99.90;;;-141.84;68.24;21214.38;4986967;28;20289;-62
2023/09/21 07:40:14;;;;;;;4.63;2.80;;;19.30;99.90;;;-141.84;67.06;21267.25;4985101;28;20282;-62
2023/09/21 07:42:45;;;;;;;4.00;2.55;;;19.60;99.90;;;-141.84;66.71;21330.28;4986357;28;20250;-62
2023/09/21 07:45:13;;;;;;;3.80;2.80;;;19.90;99.90;;;-141.84;66.02;21375.00;4986643;28;20302;-63
2023/09/21 07:47:43;;;;;;;4.32;3.13;;;20.20;99.90;;;-141.84;64.99;21433.97;4985870;28;20262;-62
2023/09/21 07:50:13;;;;;;;8.45;3.28;;;20.40;99.90;;;-141.84;63.30;21503.09;4978816;28;20242;-63
2023/09/21 07:52:41;;;;;;;5.50;2.70;;;20.60;99.90;;;-141.84;62.69;21523.44;4986384;28;20673;-63
2023/09/21 07:55:10;;;;;;;5.00;2.85;;;20.80;99.90;;;-141.84;62.54;21541.72;4986559;28;20302;-62
2023/09/21 07:57:39;;;;;;;9.25;3.75;;;20.80;99.90;;;-141.84;62.53;21513.25;4986112;28;20765;-62
2023/09/21 08:00:10;;;;;;;4.45;3.28;;;20.90;99.90;;;-141.84;62.83;21531.56;4978649;28;20647;-62
2023/09/21 08:02:38;;;;;;;7.82;3.70;;;20.90;99.90;;;-141.84;63.21;21529.53;4985928;28;20239;-63
2023/09/21 08:05:09;;;;;;;5.55;3.00;;;20.90;99.90;;;-141.84;63.59;21482.75;4985932;28;20238;-63
2023/09/21 08:07:40;;;;;;;4.03;2.92;;;20.80;99.90;;;-141.84;63.37;21529.53;4986486;28;20239;-64
2023/09/21 08:10:10;;;;;;;4.95;2.58;;;20.90;99.90;;;-141.84;63.57;21551.91;4978850;28;20873;-63
2023/09/21 08:12:41;;;;;;;4.90;3.10;;;20.90;99.90;;;-141.84;63.21;21517.31;4986312;28;20356;-63
2023/09/21 08:15:11;;;;;;;3.70;2.83;;;20.90;99.90;;;-141.84;63.39;21511.22;4986296;28;20211;-63
2023/09/21 08:17:40;;;;;;;3.63;2.55;;;20.90;99.90;;;-141.84;64.01;21476.66;4985756;28;20731;-63
2023/09/21 08:20:09;;;;;;;3.33;2.80;;;20.80;99.90;;;-141.84;64.36;21521.41;4978024;28;20322;-62
2023/09/21 08:22:39;;;;;;;4.32;2.42;;;20.80;99.90;;;-141.84;63.71;21568.16;4986067;28;20242;-63
2023/09/21 08:25:08;;;;;;;4.95;2.75;;;21.00;99.90;;;-141.84;62.22;21675.94;4980381;28;20245;-63
2023/09/21 08:27:39;;;;;;;4.30;2.60;;;21.20;99.90;;;-141.84;61.55;21700.31;4985711;28;20315;-63
2023/09/21 08:30:09;;;;;;;4.28;2.60;;;21.40;99.90;;;-141.84;60.15;21779.63;4978732;28;20668;-63
2023/09/21 08:32:39;;;;;;;2.95;2.22;;;21.70;99.90;;;-141.84;60.47;21759.28;4985414;28;20614;-63
2023/09/21 08:35:10;;;;;;;4.90;2.42;;;21.80;99.90;;;-141.84;60.18;21830.47;4985022;28;20243;-64
2023/09/21 08:37:39;;;;;;;3.35;2.25;;;21.90;99.90;;;-141.84;59.46;21797.94;4985454;28;20231;-62
2023/09/21 08:40:09;;;;;;;4.80;2.40;;;22.00;99.90;;;-141.84;59.70;21863.00;4978337;28;20624;-64
2023/09/21 08:42:38;;;;;;;3.58;2.55;;;22.10;99.90;;;-141.84;58.32;21873.16;4984906;28;20207;-63
2023/09/21 08:45:11;;;;;;;2.40;2.10;;;22.30;99.90;;;-141.84;58.64;21846.72;4986197;28;20204;-64
2023/09/21 08:47:41;;;;;;;4.50;2.42;;;22.30;99.90;;;-141.84;58.12;21907.72;4984525;28;20231;-63
2023/09/21 08:50:10;;;;;;;4.22;2.20;;;22.30;99.90;;;-141.84;58.92;21871.13;4976900;28;20334;-63
2023/09/21 08:52:42;;;;;;;5.90;2.35;;;22.30;99.90;;;-141.84;58.61;21907.72;4985575;28;20231;-62
2023/09/21 08:55:10;;;;;;;3.80;2.30;;;22.30;99.90;;;-141.84;58.10;21889.44;4985740;28;20662;-64
2023/09/21 08:57:39;;;;;;;5.53;2.30;;;22.40;99.90;;;-141.84;58.28;21883.31;4985417;28;20705;-62
2023/09/21 09:00:09;;;;;;;2.47;2.22;;;22.40;99.90;;;-141.84;58.46;21917.91;4977457;28;20510;-62
2023/09/21 09:02:37;;;;;;;5.07;2.30;;;22.40;99.90;;;-141.84;58.60;21897.56;4984799;28;20323;-63
2023/09/21 09:05:08;;;;;;;2.65;2.10;;;22.50;99.90;;;-141.84;58.42;21980.94;4984645;28;20235;-62
2023/09/21 09:07:42;;;;;;;3.58;2.38;;;22.60;99.90;;;-141.84;58.44;21982.97;4985126;28;20263;-63
2023/09/21 09:10:14;;;;;;;3.95;2.20;;;22.70;99.90;;;-141.84;57.94;21987.03;4977798;28;20253;-62
2023/09/21 09:12:43;;;;;;;3.50;2.17;;;22.70;99.90;;;-141.84;58.02;22017.53;4985238;28;20247;-63
2023/09/21 09:15:14;;;;;;;5.15;2.60;;;22.80;99.90;;;-141.84;56.98;22037.88;4985268;28;20302;-62
2023/09/21 09:17:43;;;;;;;3.85;2.40;;;22.90;99.90;;;-141.84;56.86;22017.53;4984701;28;20614;-61
2023/09/21 09:20:16;;;;;;;5.93;2.80;;;23.00;99.90;;;-141.84;56.85;22070.41;4976640;28;20235;-62
2023/09/21 09:22:51;;;;;;;2.55;1.77;;;23.10;99.90;;;-141.84;56.68;22086.69;4984022;28;20293;-62
2023/09/21 09:25:20;;;;;;;2.45;2.10;;;23.20;99.90;;;-141.84;56.41;22123.28;4980355;28;20238;-63
2023/09/21 09:27:49;;;;;;;3.03;2.28;;;23.20;99.90;;;-141.84;55.91;22143.63;4980462;28;20357;-62
2023/09/21 09:30:20;;;;;;;2.20;2.00;;;23.20;99.90;;;-141.84;55.45;22123.28;4985091;28;20259;-62
2023/09/21 09:32:51;;;;;;;3.50;1.83;;;23.30;99.90;;;-141.84;55.85;22131.41;4984758;28;20235;-62
2023/09/21 09:35:20;;;;;;;2.92;1.83;;;23.40;99.90;;;-141.84;55.07;22204.63;4984583;28;20329;-64
2023/09/21 09:37:49;;;;;;;2.60;2.13;;;23.50;99.90;;;-141.84;54.88;22229.03;4981194;28;20235;-61
2023/09/21 09:40:23;;;;;;;2.92;2.00;;;23.60;99.90;;;-141.84;54.44;22245.28;4984323;28;20425;-63
2023/09/21 09:42:53;;;;;;;4.25;2.35;;;23.60;99.90;;;-141.84;53.82;22288.00;4984530;28;20242;-63
2023/09/21 09:45:26;;;;;;;3.10;2.15;;;23.70;99.90;;;-141.84;53.24;22285.97;4984657;28;20211;-63
2023/09/21 09:47:57;;;;;;;5.38;2.20;;;23.80;99.90;;;-141.84;53.14;22302.25;4976822;28;20323;-61
2023/09/21 09:50:26;;;;;;;4.55;2.60;;;23.90;99.90;;;-141.84;53.32;22342.91;4983777;28;20304;-63
2023/09/21 09:53:05;;;;;;;2.78;2.28;;;24.00;99.90;;;-141.84;53.03;22383.59;4983998;28;20223;-62
2023/09/21 09:55:35;;;;;;;5.60;2.20;;;24.10;99.90;;;-141.84;52.99;22357.16;4983860;28;20237;-64
2023/09/21 09:58:06;;;;;;;4.57;2.38;;;24.10;99.90;;;-141.84;52.86;22369.34;4977104;28;20719;-64
2023/09/21 10:00:35;;;;;;;2.63;2.00;;;24.20;99.90;;;-141.84;52.01;22446.63;4984299;28;20671;-63
2023/09/21 10:03:07;;;;;;;4.22;2.00;;;24.30;99.90;;;-141.84;51.71;22464.94;4965136;28;20212;-63
2023/09/21 10:05:37;;;;;;;3.78;2.58;;;24.30;99.90;;;-141.84;52.04;22436.47;4964448;28;20263;-62
2023/09/21 10:08:08;;;;;;;5.10;2.15;;;24.40;99.90;;;-141.84;51.11;22471.03;4956550;28;20578;-63
2023/09/21 10:10:44;;;;;;;5.55;2.20;;;24.40;99.90;;;-141.84;51.09;22521.88;4964653;28;20232;-62
2023/09/21 10:13:13;;;;;;;5.47;2.05;;;24.50;99.90;;;-141.84;50.74;22499.50;4982682;28;20223;-63
2023/09/21 10:15:43;;;;;;;2.53;1.90;;;24.50;99.90;;;-141.84;50.80;22509.69;4983944;28;20310;-63